Shreveport, Louisiana
Current Conditions -  °F | °C
As of 2:53 PM on Sunday 23 Nov 2014 (Local Time) from KDTN Reporting Station
Clear Clear  
Wind Chill: 72°   Ceiling: Unl
Heat Index: 72°   Visibility: 10mi
Dew Point: 56°   Wind: 15mph
Humidity: 57%   Direction: 200°SSW
Pressure: 29.41"   Gusts: NA
Location:  32.51°N, 93.75°W
Report Text: KDTN 232053Z 20013KT 10SM CLR 22/13 A2941 RMK AO2 SLP958 T02220133 56027
Loading
Personal Weather Stations






























Interactive Weather Map New forecast layout! Learn more

10-Day Weather Forecast

Advertisements
Track Severe Weather on mobile